Seiyoh101 — JD3331 — position and weather

sailwx.info

Track history (hours):
 
Tides and Currents Weather Stations Pressure Air Temp Water Temp Dewpoint Dewpoint Depression Visibility Wind Speed Wind Dir Waves Ship Positions

Seiyoh101

Last reported at 2017-Nov-19 06:00 UTC. Time now 2017-Nov-19 06:26 UTC.
Position N 34°39' E 135°08'.

Length 60 m.

Type: Tanker. MMSI: 431003382.

Date/timePositionNaut miles runAvg speedWind from/ knotsBaromVisibWave heightAir tempDewpointWater temp
2017-Nov-19 06:00N 34°39' E 135°08'0 0.0
2017-Nov-19 05:30N 34°39' E 135°08'0 0.0
2017-Nov-19 05:00N 34°39' E 135°08'0 0.0
2017-Nov-19 04:30N 34°39' E 135°08'0 0.0
2017-Nov-19 03:54N 34°39' E 135°08'0 0.0
2017-Nov-19 03:30N 34°39' E 135°08'0 0.0
2017-Nov-19 03:00N 34°39' E 135°08'0 0.0
2017-Nov-19 02:30N 34°39' E 135°08'0 0.0
2017-Nov-19 02:00N 34°39' E 135°08'0 0.0
2017-Nov-19 01:24N 34°39' E 135°08'0 0.0
2017-Nov-19 01:00N 34°39' E 135°08'0 0.0
2017-Nov-19 00:30N 34°39' E 135°08'0 0.0
2017-Nov-19 00:00N 34°39' E 135°08'0 0.0
2017-Nov-18 23:24N 34°39' E 135°08'0 0.0
2017-Nov-18 23:00N 34°39' E 135°08'1 1.2
2017-Nov-18 22:22N 34°38' E 135°09'0 0.0
2017-Nov-18 21:46N 34°38' E 135°09'0 0.0
2017-Nov-18 21:28N 34°38' E 135°09'0 0.0
2017-Nov-18 20:58N 34°38' E 135°09'0 0.0
2017-Nov-18 20:22N 34°38' E 135°09'0 0.0
2017-Nov-18 19:58N 34°38' E 135°09'0 0.0
2017-Nov-18 19:28N 34°38' E 135°09'0 0.1
2017-Nov-18 18:58N 34°38' E 135°09'0 0.0
2017-Nov-18 18:28N 34°38' E 135°09'0 0.0
2017-Nov-18 17:58N 34°38' E 135°09'0 0.0
2017-Nov-18 17:28N 34°38' E 135°09'0 0.1
2017-Nov-18 16:58N 34°38' E 135°09'0 0.0
2017-Nov-18 16:28N 34°38' E 135°09'0 0.0
2017-Nov-18 15:58N 34°38' E 135°09'0 0.0
2017-Nov-18 15:28N 34°38' E 135°09'0 0.0
2017-Nov-18 14:52N 34°38' E 135°09'0 0.0
2017-Nov-18 14:28N 34°38' E 135°09'0 0.0
2017-Nov-18 13:58N 34°38' E 135°09'0 0.0
2017-Nov-18 13:28N 34°38' E 135°09'0 0.1
2017-Nov-18 12:58N 34°38' E 135°09'0 0.0
2017-Nov-18 12:22N 34°38' E 135°09'0 0.0
2017-Nov-18 11:52N 34°38' E 135°09'0 0.0
2017-Nov-18 11:22N 34°38' E 135°09'0 0.0
2017-Nov-18 10:52N 34°38' E 135°09'0 0.0
2017-Nov-18 10:22N 34°38' E 135°09'0 0.0
2017-Nov-18 09:58N 34°38' E 135°09'0 0.0
2017-Nov-18 09:22N 34°38' E 135°09'0 0.1
2017-Nov-18 08:58N 34°38' E 135°09'0 0.1
2017-Nov-18 08:22N 34°38' E 135°09'0 0.0
2017-Nov-18 07:58N 34°38' E 135°09'0 0.0
2017-Nov-18 07:28N 34°38' E 135°09'0 0.0
2017-Nov-18 06:58N 34°38' E 135°09'0 0.1
2017-Nov-18 06:28N 34°38' E 135°09'0 0.0
2017-Nov-18 05:52N 34°38' E 135°09'1 3.0
2017-Nov-18 05:30N 34°38' E 135°10'510.7
2017-Nov-18 05:00N 34°38' E 135°17'2 4.0
2017-Nov-18 04:27N 34°40' E 135°17'0 0.0
2017-Nov-18 03:58N 34°40' E 135°17'0 0.0
2017-Nov-18 03:22N 34°40' E 135°17'0 0.0
2017-Nov-18 02:58N 34°40' E 135°17'0 0.0
2017-Nov-18 02:25N 34°40' E 135°17'0 0.0
2017-Nov-18 01:55N 34°40' E 135°17'0 0.0
2017-Nov-18 01:25N 34°40' E 135°17'0 0.0
2017-Nov-18 00:59N 34°40' E 135°17'5 9.3
2017-Nov-18 00:29N 34°36' E 135°15'11 0.3
2017-Nov-16 04:34N 34°37' E 135°02'2 6.6
2017-Nov-16 04:20N 34°36' E 135°03'3 7.7
2017-Nov-16 04:00N 34°36' E 135°06'5 9.5
2017-Nov-16 03:29N 34°36' E 135°12'510.1
2017-Nov-16 02:57N 34°36' E 135°19'510.2
2017-Nov-16 02:28N 34°39' E 135°24'1 0.3
2017-Nov-15 23:27N 34°39' E 135°25'0 0.0
2017-Nov-15 22:59N 34°39' E 135°25'1 1.9
2017-Nov-15 22:27N 34°39' E 135°24'4 9.0
2017-Nov-15 21:59N 34°36' E 135°20'5 8.8
2017-Nov-15 21:25N 34°35' E 135°14'3 7.9
2017-Nov-15 20:59N 34°35' E 135°10'  
Track history (hours):
 
Tides and Currents Weather Stations Pressure Air Temp Water Temp Dewpoint Dewpoint Depression Visibility Wind Speed Wind Dir Waves Ship Positions

Seiyoh101

Last reported at 2017-Nov-19 06:00 UTC. Time now 2017-Nov-19 06:26 UTC.
Position N 34°39' E 135°08'.

Length 60 m.

Type: Tanker. MMSI: 431003382.

Date/timePositionNaut miles runAvg speedWind from/ knotsBaromVisibWave heightAir tempDewpointWater temp
2017-Nov-19 06:00N 34°39' E 135°08'0 0.0
2017-Nov-19 05:30N 34°39' E 135°08'0 0.0
2017-Nov-19 05:00N 34°39' E 135°08'0 0.0
2017-Nov-19 04:30N 34°39' E 135°08'0 0.0
2017-Nov-19 03:54N 34°39' E 135°08'0 0.0
2017-Nov-19 03:30N 34°39' E 135°08'0 0.0
2017-Nov-19 03:00N 34°39' E 135°08'0 0.0
2017-Nov-19 02:30N 34°39' E 135°08'0 0.0
2017-Nov-19 02:00N 34°39' E 135°08'0 0.0
2017-Nov-19 01:24N 34°39' E 135°08'0 0.0
2017-Nov-19 01:00N 34°39' E 135°08'0 0.0
2017-Nov-19 00:30N 34°39' E 135°08'0 0.0
2017-Nov-19 00:00N 34°39' E 135°08'0 0.0
2017-Nov-18 23:24N 34°39' E 135°08'0 0.0
2017-Nov-18 23:00N 34°39' E 135°08'1 1.2
2017-Nov-18 22:22N 34°38' E 135°09'0 0.0
2017-Nov-18 21:46N 34°38' E 135°09'0 0.0
2017-Nov-18 21:28N 34°38' E 135°09'0 0.0
2017-Nov-18 20:58N 34°38' E 135°09'0 0.0
2017-Nov-18 20:22N 34°38' E 135°09'0 0.0
2017-Nov-18 19:58N 34°38' E 135°09'0 0.0
2017-Nov-18 19:28N 34°38' E 135°09'0 0.1
2017-Nov-18 18:58N 34°38' E 135°09'0 0.0
2017-Nov-18 18:28N 34°38' E 135°09'0 0.0
2017-Nov-18 17:58N 34°38' E 135°09'0 0.0
2017-Nov-18 17:28N 34°38' E 135°09'0 0.1
2017-Nov-18 16:58N 34°38' E 135°09'0 0.0
2017-Nov-18 16:28N 34°38' E 135°09'0 0.0
2017-Nov-18 15:58N 34°38' E 135°09'0 0.0
2017-Nov-18 15:28N 34°38' E 135°09'0 0.0
2017-Nov-18 14:52N 34°38' E 135°09'0 0.0
2017-Nov-18 14:28N 34°38' E 135°09'0 0.0
2017-Nov-18 13:58N 34°38' E 135°09'0 0.0
2017-Nov-18 13:28N 34°38' E 135°09'0 0.1
2017-Nov-18 12:58N 34°38' E 135°09'0 0.0
2017-Nov-18 12:22N 34°38' E 135°09'0 0.0
2017-Nov-18 11:52N 34°38' E 135°09'0 0.0
2017-Nov-18 11:22N 34°38' E 135°09'0 0.0
2017-Nov-18 10:52N 34°38' E 135°09'0 0.0
2017-Nov-18 10:22N 34°38' E 135°09'0 0.0
2017-Nov-18 09:58N 34°38' E 135°09'0 0.0
2017-Nov-18 09:22N 34°38' E 135°09'0 0.1
2017-Nov-18 08:58N 34°38' E 135°09'0 0.1
2017-Nov-18 08:22N 34°38' E 135°09'0 0.0
2017-Nov-18 07:58N 34°38' E 135°09'0 0.0
2017-Nov-18 07:28N 34°38' E 135°09'0 0.0
2017-Nov-18 06:58N 34°38' E 135°09'0 0.1
2017-Nov-18 06:28N 34°38' E 135°09'0 0.0
2017-Nov-18 05:52N 34°38' E 135°09'1 3.0
2017-Nov-18 05:30N 34°38' E 135°10'510.7
2017-Nov-18 05:00N 34°38' E 135°17'2 4.0
2017-Nov-18 04:27N 34°40' E 135°17'0 0.0
2017-Nov-18 03:58N 34°40' E 135°17'0 0.0
2017-Nov-18 03:22N 34°40' E 135°17'0 0.0
2017-Nov-18 02:58N 34°40' E 135°17'0 0.0
2017-Nov-18 02:25N 34°40' E 135°17'0 0.0
2017-Nov-18 01:55N 34°40' E 135°17'0 0.0
2017-Nov-18 01:25N 34°40' E 135°17'0 0.0
2017-Nov-18 00:59N 34°40' E 135°17'5 9.3
2017-Nov-18 00:29N 34°36' E 135°15'11 0.3
2017-Nov-16 04:34N 34°37' E 135°02'2 6.6
2017-Nov-16 04:20N 34°36' E 135°03'3 7.7
2017-Nov-16 04:00N 34°36' E 135°06'5 9.5
2017-Nov-16 03:29N 34°36' E 135°12'510.1
2017-Nov-16 02:57N 34°36' E 135°19'510.2
2017-Nov-16 02:28N 34°39' E 135°24'1 0.3
2017-Nov-15 23:27N 34°39' E 135°25'0 0.0
2017-Nov-15 22:59N 34°39' E 135°25'1 1.9
2017-Nov-15 22:27N 34°39' E 135°24'4 9.0
2017-Nov-15 21:59N 34°36' E 135°20'5 8.8
2017-Nov-15 21:25N 34°35' E 135°14'3 7.9
2017-Nov-15 20:59N 34°35' E 135°10'  

Dump ship's entire track history